Anne Sibum — C4YC2 — position and weather

sailwx.info

Track history (hours):
 
Tides and Currents Weather Stations Pressure Air Temp Water Temp Dewpoint Dewpoint Depression Visibility Wind Speed Wind Dir Waves Ship Positions

Anne Sibum

Last reported at 2015-Jan-31 04:31 UTC. Time now 2015-Jan-31 05:32 UTC.
Position N 53°32' E 009°55'.

Length 151 m; draft 7.6 m.

Type: Ship (hazmat cat A). MMSI: 209322000.

Date/timePositionNaut miles runAvg speedWind from/ knotsBaromVisibWave heightAir tempDewpointWater temp
2015-Jan-31 04:31N 53°32' E 009°55'0 0.0
2015-Jan-31 03:34N 53°32' E 009°55'0 0.0
2015-Jan-31 02:33N 53°32' E 009°55'0 0.0
2015-Jan-31 01:33N 53°32' E 009°55'0 0.0
2015-Jan-31 00:32N 53°32' E 009°55'0 0.0
2015-Jan-30 23:29N 53°32' E 009°55'0 0.0
2015-Jan-30 22:31N 53°32' E 009°55'0 0.0
2015-Jan-30 21:28N 53°32' E 009°55'0 0.0
2015-Jan-30 20:30N 53°32' E 009°55'0 0.0
2015-Jan-30 19:27N 53°32' E 009°55'0 0.0
2015-Jan-30 18:33N 53°32' E 009°55'0 0.0
2015-Jan-30 17:32N 53°32' E 009°55'0 0.0
2015-Jan-30 16:32N 53°32' E 009°55'0 0.0
2015-Jan-30 15:31N 53°32' E 009°55'0 0.0
2015-Jan-30 14:31N 53°32' E 009°55'0 0.0
2015-Jan-30 13:33N 53°32' E 009°55'1 0.5
2015-Jan-30 12:28N 53°32' E 009°55'0 0.0
2015-Jan-30 11:28N 53°32' E 009°55'0 0.0
2015-Jan-30 10:33N 53°32' E 009°55'0 0.0
2015-Jan-30 09:33N 53°32' E 009°55'0 0.0
2015-Jan-30 08:32N 53°32' E 009°55'0 0.0
2015-Jan-30 07:32N 53°32' E 009°55'0 0.0
2015-Jan-30 06:32N 53°32' E 009°55'0 0.0
2015-Jan-30 05:31N 53°32' E 009°55'0 0.0
2015-Jan-30 04:28N 53°32' E 009°55'0 0.0
2015-Jan-30 03:24N 53°32' E 009°55'0 0.0
2015-Jan-30 02:33N 53°32' E 009°55'0 0.0
2015-Jan-30 01:29N 53°32' E 009°55'0 0.0
2015-Jan-30 00:32N 53°32' E 009°55'0 0.0
2015-Jan-29 23:32N 53°32' E 009°55'0 0.0
2015-Jan-29 22:28N 53°32' E 009°55'0 0.0
2015-Jan-29 21:31N 53°32' E 009°55'0 0.2
2015-Jan-29 20:33N 53°32' E 009°55'1 1.5
2015-Jan-29 19:33N 53°32' E 009°57'0 0.0
2015-Jan-29 18:30N 53°32' E 009°57'0 0.0
2015-Jan-29 17:23N 53°32' E 009°57'0 0.0
2015-Jan-29 16:32N 53°32' E 009°57'0 0.0
2015-Jan-29 15:32N 53°32' E 009°57'0 0.0
2015-Jan-29 14:28N 53°32' E 009°57'0 0.0
2015-Jan-29 13:28N 53°32' E 009°57'0 0.0
2015-Jan-29 12:33N 53°32' E 009°57'0 0.0
2015-Jan-29 11:33N 53°32' E 009°57'0 0.1
2015-Jan-29 10:34N 53°32' E 009°57'8 8.4
2015-Jan-29 09:33N 53°34' E 009°43'1212.1
2015-Jan-29 08:33N 53°42' E 009°29'1514.7
2015-Jan-29 07:33N 53°53' E 009°12'2 2.0
2015-Jan-29 06:34N 53°54' E 009°09'1 0.8
2015-Jan-29 05:34N 53°54' E 009°10'0 0.5
2015-Jan-29 04:34N 53°55' E 009°10'2 2.2
2015-Jan-29 03:33N 53°56' E 009°13'1 0.6
2015-Jan-29 02:33N 53°57' E 009°13'5 5.3
2015-Jan-29 01:33N 54°01' E 009°18'8 7.8
2015-Jan-29 00:32N 54°09' E 009°22'9 4.3
2015-Jan-28 22:33N 54°13' E 009°35'8 7.3
2015-Jan-28 21:26N 54°19' E 009°43'6 7.2
2015-Jan-28 20:33N 54°21' E 009°53'7 7.1
2015-Jan-28 19:33N 54°22' E 010°05'2 1.9
2015-Jan-28 18:33N 54°22' E 010°08'4 3.9
2015-Jan-28 17:34N 54°25' E 010°13'9 9.3
2015-Jan-28 16:33N 54°32' E 010°22'0 0.0
2015-Jan-28 15:32N 54°33' E 010°22'0 0.0
2015-Jan-28 14:31N 54°33' E 010°22'0 0.0
2015-Jan-28 13:31N 54°33' E 010°22'0 0.1
2015-Jan-28 12:34N 54°32' E 010°22'1312.2
2015-Jan-28 11:32N 54°37' E 010°42'82 4.2
2015-Jan-27 16:16N 55°59' E 010°29'1115.4
2015-Jan-27 15:33N 56°08' E 010°18'3 0.4
2015-Jan-27 09:33N 56°09' E 010°14'1211.6
2015-Jan-27 08:32N 56°05' E 010°33'4314.0
2015-Jan-27 05:29N 56°20' E 011°45'1313.9
2015-Jan-27 04:33N 56°17' E 012°08'1414.1
2015-Jan-27 03:33N 56°09' E 012°29'1413.6
2015-Jan-27 02:34N 55°58' E 012°43'1413.8
2015-Jan-27 01:33N 55°44' E 012°40'2 2.2
2015-Jan-27 00:33N 55°43' E 012°36'0 0.0
2015-Jan-26 23:33N 55°43' E 012°36'0 0.0
2015-Jan-26 22:32N 55°43' E 012°36'0 0.0
2015-Jan-26 21:32N 55°43' E 012°36'0 0.0
2015-Jan-26 20:31N 55°43' E 012°36'0 0.0
2015-Jan-26 19:31N 55°43' E 012°36'0 0.0
2015-Jan-26 18:33N 55°43' E 012°36'0 0.0
2015-Jan-26 17:33N 55°43' E 012°36'0 0.0
2015-Jan-26 16:33N 55°43' E 012°36'0 0.0
2015-Jan-26 15:32N 55°43' E 012°36'0 0.4
2015-Jan-26 14:33N 55°43' E 012°37'10 9.8
2015-Jan-26 13:33N 55°51' E 012°45'1313.0
2015-Jan-26 12:33N 56°04' E 012°38'1313.2
2015-Jan-26 11:33N 56°12' E 012°19'101 4.6
2015-Jan-25 13:31N 54°43' E 010°53'1614.4
2015-Jan-25 12:26N 54°33' E 010°32'1213.8
2015-Jan-25 11:33N 54°27' E 010°15'6 6.1
2015-Jan-25 10:33N 54°22' E 010°08'5 5.4
2015-Jan-25 09:33N 54°21' E 009°59'6 6.1
2015-Jan-25 08:33N 54°22' E 009°49'7 7.1
2015-Jan-25 07:33N 54°17' E 009°39'7 6.5
2015-Jan-25 06:33N 54°12' E 009°33'6 6.1
2015-Jan-25 05:33N 54°10' E 009°24'7 6.6
2015-Jan-25 04:33N 54°04' E 009°19'6 5.9
2015-Jan-25 03:33N 53°58' E 009°16'2 1.8
2015-Jan-25 02:33N 53°57' E 009°14'4 4.2
2015-Jan-25 01:33N 53°54' E 009°09'1 1.2
2015-Jan-25 00:33N 53°53' E 009°07'3 2.9
2015-Jan-24 23:33N 53°53' E 009°12'0 0.1
2015-Jan-24 22:31N 53°53' E 009°12'0 0.0
2015-Jan-24 21:33N 53°53' E 009°12'0 0.0
2015-Jan-24 20:33N 53°53' E 009°12'0 0.0
2015-Jan-24 19:32N 53°53' E 009°12'0 0.0
2015-Jan-24 18:26N 53°53' E 009°12'0 0.1
2015-Jan-24 17:28N 53°53' E 009°12'0 0.0
2015-Jan-24 16:31N 53°53' E 009°12'0 0.0
2015-Jan-24 15:33N 53°53' E 009°12'0 0.3
2015-Jan-24 14:33N 53°53' E 009°13'1010.3
2015-Jan-24 13:33N 53°45' E 009°24'1212.3
2015-Jan-24 12:33N 53°35' E 009°36'1211.5
2015-Jan-24 11:33N 53°33' E 009°55'1 1.1
2015-Jan-24 10:33N 53°32' E 009°57'0 0.0
2015-Jan-24 09:33N 53°32' E 009°57'0 0.0
2015-Jan-24 08:33N 53°32' E 009°57'0 0.0
2015-Jan-24 07:33N 53°32' E 009°57'0 0.0
2015-Jan-24 06:33N 53°32' E 009°57'1 1.3
2015-Jan-24 05:31N 53°32' E 009°55'0 0.0
2015-Jan-24 04:30N 53°32' E 009°55'0 0.0
2015-Jan-24 03:30N 53°32' E 009°55'0 0.0
2015-Jan-24 02:29N 53°32' E 009°55'0 0.0
2015-Jan-24 01:29N 53°32' E 009°55'0 0.0
2015-Jan-24 00:23N 53°32' E 009°55'0 0.0
2015-Jan-23 23:31N 53°32' E 009°55'0 0.0
2015-Jan-23 22:28N 53°32' E 009°55'0 0.1
2015-Jan-23 21:33N 53°32' E 009°55'2 2.0
2015-Jan-23 20:33N 53°31' E 009°56'0 0.0
2015-Jan-23 19:32N 53°31' E 009°56'0 0.0
2015-Jan-23 18:26N 53°31' E 009°56'0 0.0
2015-Jan-23 17:19N 53°31' E 009°56'0 0.0
2015-Jan-23 16:33N 53°31' E 009°56'1 1.1
2015-Jan-23 15:33N 53°32' E 009°56'1 0.8
2015-Jan-23 14:32N 53°32' E 009°55'0 0.0
2015-Jan-23 13:31N 53°32' E 009°55'0 0.0
2015-Jan-23 12:28N 53°32' E 009°55'0 0.0
2015-Jan-23 11:27N 53°32' E 009°55'0 0.0
2015-Jan-23 10:33N 53°32' E 009°55'0 0.0
2015-Jan-23 09:32N 53°32' E 009°55'0 0.0
2015-Jan-23 08:32N 53°32' E 009°55'0 0.0
2015-Jan-23 07:32N 53°32' E 009°55'0 0.0
2015-Jan-23 06:33N 53°32' E 009°55'1 0.5
2015-Jan-23 05:33N 53°32' E 009°54'2 1.5
2015-Jan-23 04:32N 53°32' E 009°57'0 0.0
2015-Jan-23 03:31N 53°32' E 009°57'0 0.0
2015-Jan-23 02:31N 53°32' E 009°57'0 0.1
2015-Jan-23 01:29N 53°32' E 009°57'1 1.2
2015-Jan-23 00:28N 53°32' E 009°55'0 0.0
2015-Jan-22 23:31N 53°32' E 009°55'0 0.0
2015-Jan-22 22:30N 53°32' E 009°55'0 0.0
2015-Jan-22 21:31N 53°32' E 009°55'0 0.0
2015-Jan-22 20:30N 53°32' E 009°55'0 0.0
2015-Jan-22 19:29N 53°32' E 009°55'0 0.0
2015-Jan-22 18:32N 53°32' E 009°55'0 0.0
2015-Jan-22 17:31N 53°32' E 009°55'0 0.0
2015-Jan-22 16:31N 53°32' E 009°55'0 0.0
2015-Jan-22 15:34N 53°32' E 009°55'0 0.0
2015-Jan-22 14:33N 53°32' E 009°55'0 0.0
2015-Jan-22 13:33N 53°32' E 009°55'0 0.0
2015-Jan-22 12:32N 53°32' E 009°55'0 0.0
2015-Jan-22 11:29N 53°32' E 009°55'0 0.0
2015-Jan-22 10:28N 53°32' E 009°55'3 3.3
2015-Jan-22 09:33N 53°33' E 009°50'1211.6
2015-Jan-22 08:33N 53°38' E 009°32'1211.6
2015-Jan-22 07:33N 53°48' E 009°23'1010.2
2015-Jan-22 06:34N 53°53' E 009°08'1 1.2
2015-Jan-22 05:33N 53°54' E 009°09'1 0.8
2015-Jan-22 04:33N 53°55' E 009°10'0 0.0
2015-Jan-22 03:34N 53°55' E 009°10'7 6.9
2015-Jan-22 02:33N 54°00' E 009°18'8 8.1
2015-Jan-22 01:32N 54°08' E 009°20'6 6.3
2015-Jan-22 00:32N 54°11' E 009°30'7 7.4
2015-Jan-21 23:33N 54°17' E 009°38'5 7.7
2015-Jan-21 22:50N 54°20' E 009°45'1 8.8
2015-Jan-21 22:46N 54°21' E 009°46'2 8.5
2015-Jan-21 22:33N 54°22' E 009°48'7 7.1
2015-Jan-21 21:33N 54°21' E 010°00'5 4.8
2015-Jan-21 20:34N 54°22' E 010°08'1 1.0
2015-Jan-21 19:33N 54°22' E 010°10'4 3.9
2015-Jan-21 18:33N 54°25' E 010°13'1111.0
2015-Jan-21 17:34N 54°32' E 010°27'1615.2
2015-Jan-21 16:32N 54°41' E 010°50'1413.7
2015-Jan-21 15:30N 54°55' E 010°53'  
Track history (hours):
 
Tides and Currents Weather Stations Pressure Air Temp Water Temp Dewpoint Dewpoint Depression Visibility Wind Speed Wind Dir Waves Ship Positions

Anne Sibum

Last reported at 2015-Jan-31 04:31 UTC. Time now 2015-Jan-31 05:32 UTC.
Position N 53°32' E 009°55'.

Length 151 m; draft 7.6 m.

Type: Ship (hazmat cat A). MMSI: 209322000.

Date/timePositionNaut miles runAvg speedWind from/ knotsBaromVisibWave heightAir tempDewpointWater temp
2015-Jan-31 04:31N 53°32' E 009°55'0 0.0
2015-Jan-31 03:34N 53°32' E 009°55'0 0.0
2015-Jan-31 02:33N 53°32' E 009°55'0 0.0
2015-Jan-31 01:33N 53°32' E 009°55'0 0.0
2015-Jan-31 00:32N 53°32' E 009°55'0 0.0
2015-Jan-30 23:29N 53°32' E 009°55'0 0.0
2015-Jan-30 22:31N 53°32' E 009°55'0 0.0
2015-Jan-30 21:28N 53°32' E 009°55'0 0.0
2015-Jan-30 20:30N 53°32' E 009°55'0 0.0
2015-Jan-30 19:27N 53°32' E 009°55'0 0.0
2015-Jan-30 18:33N 53°32' E 009°55'0 0.0
2015-Jan-30 17:32N 53°32' E 009°55'0 0.0
2015-Jan-30 16:32N 53°32' E 009°55'0 0.0
2015-Jan-30 15:31N 53°32' E 009°55'0 0.0
2015-Jan-30 14:31N 53°32' E 009°55'0 0.0
2015-Jan-30 13:33N 53°32' E 009°55'1 0.5
2015-Jan-30 12:28N 53°32' E 009°55'0 0.0
2015-Jan-30 11:28N 53°32' E 009°55'0 0.0
2015-Jan-30 10:33N 53°32' E 009°55'0 0.0
2015-Jan-30 09:33N 53°32' E 009°55'0 0.0
2015-Jan-30 08:32N 53°32' E 009°55'0 0.0
2015-Jan-30 07:32N 53°32' E 009°55'0 0.0
2015-Jan-30 06:32N 53°32' E 009°55'0 0.0
2015-Jan-30 05:31N 53°32' E 009°55'0 0.0
2015-Jan-30 04:28N 53°32' E 009°55'0 0.0
2015-Jan-30 03:24N 53°32' E 009°55'0 0.0
2015-Jan-30 02:33N 53°32' E 009°55'0 0.0
2015-Jan-30 01:29N 53°32' E 009°55'0 0.0
2015-Jan-30 00:32N 53°32' E 009°55'0 0.0
2015-Jan-29 23:32N 53°32' E 009°55'0 0.0
2015-Jan-29 22:28N 53°32' E 009°55'0 0.0
2015-Jan-29 21:31N 53°32' E 009°55'0 0.2
2015-Jan-29 20:33N 53°32' E 009°55'1 1.5
2015-Jan-29 19:33N 53°32' E 009°57'0 0.0
2015-Jan-29 18:30N 53°32' E 009°57'0 0.0
2015-Jan-29 17:23N 53°32' E 009°57'0 0.0
2015-Jan-29 16:32N 53°32' E 009°57'0 0.0
2015-Jan-29 15:32N 53°32' E 009°57'0 0.0
2015-Jan-29 14:28N 53°32' E 009°57'0 0.0
2015-Jan-29 13:28N 53°32' E 009°57'0 0.0
2015-Jan-29 12:33N 53°32' E 009°57'0 0.0
2015-Jan-29 11:33N 53°32' E 009°57'0 0.1
2015-Jan-29 10:34N 53°32' E 009°57'8 8.4
2015-Jan-29 09:33N 53°34' E 009°43'1212.1
2015-Jan-29 08:33N 53°42' E 009°29'1514.7
2015-Jan-29 07:33N 53°53' E 009°12'2 2.0
2015-Jan-29 06:34N 53°54' E 009°09'1 0.8
2015-Jan-29 05:34N 53°54' E 009°10'0 0.5
2015-Jan-29 04:34N 53°55' E 009°10'2 2.2
2015-Jan-29 03:33N 53°56' E 009°13'1 0.6
2015-Jan-29 02:33N 53°57' E 009°13'5 5.3
2015-Jan-29 01:33N 54°01' E 009°18'8 7.8
2015-Jan-29 00:32N 54°09' E 009°22'9 4.3
2015-Jan-28 22:33N 54°13' E 009°35'8 7.3
2015-Jan-28 21:26N 54°19' E 009°43'6 7.2
2015-Jan-28 20:33N 54°21' E 009°53'7 7.1
2015-Jan-28 19:33N 54°22' E 010°05'2 1.9
2015-Jan-28 18:33N 54°22' E 010°08'4 3.9
2015-Jan-28 17:34N 54°25' E 010°13'9 9.3
2015-Jan-28 16:33N 54°32' E 010°22'0 0.0
2015-Jan-28 15:32N 54°33' E 010°22'0 0.0
2015-Jan-28 14:31N 54°33' E 010°22'0 0.0
2015-Jan-28 13:31N 54°33' E 010°22'0 0.1
2015-Jan-28 12:34N 54°32' E 010°22'1312.2
2015-Jan-28 11:32N 54°37' E 010°42'82 4.2
2015-Jan-27 16:16N 55°59' E 010°29'1115.4
2015-Jan-27 15:33N 56°08' E 010°18'3 0.4
2015-Jan-27 09:33N 56°09' E 010°14'1211.6
2015-Jan-27 08:32N 56°05' E 010°33'4314.0
2015-Jan-27 05:29N 56°20' E 011°45'1313.9
2015-Jan-27 04:33N 56°17' E 012°08'1414.1
2015-Jan-27 03:33N 56°09' E 012°29'1413.6
2015-Jan-27 02:34N 55°58' E 012°43'1413.8
2015-Jan-27 01:33N 55°44' E 012°40'2 2.2
2015-Jan-27 00:33N 55°43' E 012°36'0 0.0
2015-Jan-26 23:33N 55°43' E 012°36'0 0.0
2015-Jan-26 22:32N 55°43' E 012°36'0 0.0
2015-Jan-26 21:32N 55°43' E 012°36'0 0.0
2015-Jan-26 20:31N 55°43' E 012°36'0 0.0
2015-Jan-26 19:31N 55°43' E 012°36'0 0.0
2015-Jan-26 18:33N 55°43' E 012°36'0 0.0
2015-Jan-26 17:33N 55°43' E 012°36'0 0.0
2015-Jan-26 16:33N 55°43' E 012°36'0 0.0
2015-Jan-26 15:32N 55°43' E 012°36'0 0.4
2015-Jan-26 14:33N 55°43' E 012°37'10 9.8
2015-Jan-26 13:33N 55°51' E 012°45'1313.0
2015-Jan-26 12:33N 56°04' E 012°38'1313.2
2015-Jan-26 11:33N 56°12' E 012°19'101 4.6
2015-Jan-25 13:31N 54°43' E 010°53'1614.4
2015-Jan-25 12:26N 54°33' E 010°32'1213.8
2015-Jan-25 11:33N 54°27' E 010°15'6 6.1
2015-Jan-25 10:33N 54°22' E 010°08'5 5.4
2015-Jan-25 09:33N 54°21' E 009°59'6 6.1
2015-Jan-25 08:33N 54°22' E 009°49'7 7.1
2015-Jan-25 07:33N 54°17' E 009°39'7 6.5
2015-Jan-25 06:33N 54°12' E 009°33'6 6.1
2015-Jan-25 05:33N 54°10' E 009°24'7 6.6
2015-Jan-25 04:33N 54°04' E 009°19'6 5.9
2015-Jan-25 03:33N 53°58' E 009°16'2 1.8
2015-Jan-25 02:33N 53°57' E 009°14'4 4.2
2015-Jan-25 01:33N 53°54' E 009°09'1 1.2
2015-Jan-25 00:33N 53°53' E 009°07'3 2.9
2015-Jan-24 23:33N 53°53' E 009°12'0 0.1
2015-Jan-24 22:31N 53°53' E 009°12'0 0.0
2015-Jan-24 21:33N 53°53' E 009°12'0 0.0
2015-Jan-24 20:33N 53°53' E 009°12'0 0.0
2015-Jan-24 19:32N 53°53' E 009°12'0 0.0
2015-Jan-24 18:26N 53°53' E 009°12'0 0.1
2015-Jan-24 17:28N 53°53' E 009°12'0 0.0
2015-Jan-24 16:31N 53°53' E 009°12'0 0.0
2015-Jan-24 15:33N 53°53' E 009°12'0 0.3
2015-Jan-24 14:33N 53°53' E 009°13'1010.3
2015-Jan-24 13:33N 53°45' E 009°24'1212.3
2015-Jan-24 12:33N 53°35' E 009°36'1211.5
2015-Jan-24 11:33N 53°33' E 009°55'1 1.1
2015-Jan-24 10:33N 53°32' E 009°57'0 0.0
2015-Jan-24 09:33N 53°32' E 009°57'0 0.0
2015-Jan-24 08:33N 53°32' E 009°57'0 0.0
2015-Jan-24 07:33N 53°32' E 009°57'0 0.0
2015-Jan-24 06:33N 53°32' E 009°57'1 1.3
2015-Jan-24 05:31N 53°32' E 009°55'0 0.0
2015-Jan-24 04:30N 53°32' E 009°55'0 0.0
2015-Jan-24 03:30N 53°32' E 009°55'0 0.0
2015-Jan-24 02:29N 53°32' E 009°55'0 0.0
2015-Jan-24 01:29N 53°32' E 009°55'0 0.0
2015-Jan-24 00:23N 53°32' E 009°55'0 0.0
2015-Jan-23 23:31N 53°32' E 009°55'0 0.0
2015-Jan-23 22:28N 53°32' E 009°55'0 0.1
2015-Jan-23 21:33N 53°32' E 009°55'2 2.0
2015-Jan-23 20:33N 53°31' E 009°56'0 0.0
2015-Jan-23 19:32N 53°31' E 009°56'0 0.0
2015-Jan-23 18:26N 53°31' E 009°56'0 0.0
2015-Jan-23 17:19N 53°31' E 009°56'0 0.0
2015-Jan-23 16:33N 53°31' E 009°56'1 1.1
2015-Jan-23 15:33N 53°32' E 009°56'1 0.8
2015-Jan-23 14:32N 53°32' E 009°55'0 0.0
2015-Jan-23 13:31N 53°32' E 009°55'0 0.0
2015-Jan-23 12:28N 53°32' E 009°55'0 0.0
2015-Jan-23 11:27N 53°32' E 009°55'0 0.0
2015-Jan-23 10:33N 53°32' E 009°55'0 0.0
2015-Jan-23 09:32N 53°32' E 009°55'0 0.0
2015-Jan-23 08:32N 53°32' E 009°55'0 0.0
2015-Jan-23 07:32N 53°32' E 009°55'0 0.0
2015-Jan-23 06:33N 53°32' E 009°55'1 0.5
2015-Jan-23 05:33N 53°32' E 009°54'2 1.5
2015-Jan-23 04:32N 53°32' E 009°57'0 0.0
2015-Jan-23 03:31N 53°32' E 009°57'0 0.0
2015-Jan-23 02:31N 53°32' E 009°57'0 0.1
2015-Jan-23 01:29N 53°32' E 009°57'1 1.2
2015-Jan-23 00:28N 53°32' E 009°55'0 0.0
2015-Jan-22 23:31N 53°32' E 009°55'0 0.0
2015-Jan-22 22:30N 53°32' E 009°55'0 0.0
2015-Jan-22 21:31N 53°32' E 009°55'0 0.0
2015-Jan-22 20:30N 53°32' E 009°55'0 0.0
2015-Jan-22 19:29N 53°32' E 009°55'0 0.0
2015-Jan-22 18:32N 53°32' E 009°55'0 0.0
2015-Jan-22 17:31N 53°32' E 009°55'0 0.0
2015-Jan-22 16:31N 53°32' E 009°55'0 0.0
2015-Jan-22 15:34N 53°32' E 009°55'0 0.0
2015-Jan-22 14:33N 53°32' E 009°55'0 0.0
2015-Jan-22 13:33N 53°32' E 009°55'0 0.0
2015-Jan-22 12:32N 53°32' E 009°55'0 0.0
2015-Jan-22 11:29N 53°32' E 009°55'0 0.0
2015-Jan-22 10:28N 53°32' E 009°55'3 3.3
2015-Jan-22 09:33N 53°33' E 009°50'1211.6
2015-Jan-22 08:33N 53°38' E 009°32'1211.6
2015-Jan-22 07:33N 53°48' E 009°23'1010.2
2015-Jan-22 06:34N 53°53' E 009°08'1 1.2
2015-Jan-22 05:33N 53°54' E 009°09'1 0.8
2015-Jan-22 04:33N 53°55' E 009°10'0 0.0
2015-Jan-22 03:34N 53°55' E 009°10'7 6.9
2015-Jan-22 02:33N 54°00' E 009°18'8 8.1
2015-Jan-22 01:32N 54°08' E 009°20'6 6.3
2015-Jan-22 00:32N 54°11' E 009°30'7 7.4
2015-Jan-21 23:33N 54°17' E 009°38'5 7.7
2015-Jan-21 22:50N 54°20' E 009°45'1 8.8
2015-Jan-21 22:46N 54°21' E 009°46'2 8.5
2015-Jan-21 22:33N 54°22' E 009°48'7 7.1
2015-Jan-21 21:33N 54°21' E 010°00'5 4.8
2015-Jan-21 20:34N 54°22' E 010°08'1 1.0
2015-Jan-21 19:33N 54°22' E 010°10'4 3.9
2015-Jan-21 18:33N 54°25' E 010°13'1111.0
2015-Jan-21 17:34N 54°32' E 010°27'1615.2
2015-Jan-21 16:32N 54°41' E 010°50'1413.7
2015-Jan-21 15:30N 54°55' E 010°53'  

Dump ship's entire track history